Colfax, WA

11:09 PM PDT on September 02, 2014 (GMT -0700)
APRSWXNET Pullman WA US | Change Station
CLOSE
Current Station
Personal Weather Station
Location: Pullman, WA
Elevation: 2583 ft
Nearby Weather Stations

Elev 2583 ft 46.75 °N, 117.18 °W | Updated 58 minutes ago

Overcast
Overcast
62 °F
Feels Like 62 °F
N
18
Wind Variable Wind from WSW
Gusts 31.0 mph

Today
High -- | Low -- °F
--% Chance of Precip.
Yesterday
High -- | Low -- °F
Precip. -- in
6:10 AM 7:26 PM
First Quarter, 59% visible
Pressure 29.74 in
Visibility 10.0 miles
Clouds Overcast 5500 ft
Dew Point 47 °F
Humidity 58%
Rainfall 0.00 in
Snow Depth Not available.
UV 0 out of 12
Pollen 6.90 out of 12
Air Quality Not available.
Flu Activity Not available.
METAR KPUW 030553Z AUTO 24020G29KT 10SM OVC055 17/07 A2977 RMK AO2 PK WND 23031/0455 SLP070 T01670072 10239 20167 53014

More Conditions Fewer Conditions

Pressure 29.74 in
Visibility 10.0 miles
Clouds Overcast 5500 ft
Dew Point 47 °F
Humidity 58%
Rainfall 0.00 in
Snow Depth Not available.
UV 0 out of 12
Pollen 6.90 out of 12
Air Quality Not available.
Flu Activity Not available.
METAR KPUW 030553Z AUTO 24020G29KT 10SM OVC055 17/07 A2977 RMK AO2 PK WND 23031/0455 SLP070 T01670072 10239 20167 53014

More Conditions Fewer Conditions

10-Day Weather Forecast

Almanac

Astronomy

Sep. 02, 2014 Rise Set
Actual Time 6:10 AM PDT 7:26 PM PDT
Civil Twilight 5:39 AM PDT 7:58 PM PDT
Nautical Twilight 5:01 AM PDT 8:35 PM PDT
Astronomical Twilight 4:20 AM PDT 9:15 PM PDT
Moon 2:26 PM PDT (9/2) 11:57 PM PDT (9/2)
Length of Visible Light 14h 19m
Length of Day
13h 16m
Tomorrow will be 3m 14s shorter.
First Quarter, 59% of the Moon is Illuminated
Sep 3
First Quarter
Sep 8
Full
Sep 15
Last Quarter
Sep 24
New
Oct 1
First Quarter

Community

WunderPhotos

Upload Photos

1,749,888 photos uploaded!

Nearby

Snow Depth

Station Depth Elevation
Sourdough Gulch 0 in 4000 ft
Spruce Springs 0 in 5700 ft
Quartz Peak 1 in 4700 ft
Bunchgrass Meadow 0 in 5000 ft
Moses Mountain 1 in 5300 ft

Earthquake Activity

City Distance Mag. Time & Date
Mullan, Idaho 83 miles 2.5 1:01 AM PDT
2014-08-31
Minimum magnitude displayed is 2.5.

Coastal Water Temperatures

Place Temperature
No Stations Reporting

Nearby Weather Stations